createdAt,value
2022-12-29T00:01:12.909Z,71.25
2022-12-29T00:03:41.134Z,71.28
2022-12-29T00:06:09.568Z,70.99
2022-12-29T00:08:41.033Z,71.15
2022-12-29T00:11:16.161Z,71.02
2022-12-29T00:14:03.520Z,71.10
2022-12-29T00:16:33.228Z,71.27
2022-12-29T00:19:02.285Z,71.05
2022-12-29T00:21:48.987Z,71.12
2022-12-29T00:24:27.302Z,70.97
2022-12-29T00:27:23.151Z,70.78
2022-12-29T00:30:10.057Z,70.92
2022-12-29T00:32:57.265Z,70.72
2022-12-29T00:35:45.403Z,70.68
2022-12-29T00:38:33.084Z,70.80
2022-12-29T00:41:20.137Z,70.83
2022-12-29T00:44:06.582Z,70.80
2022-12-29T00:46:43.981Z,70.84
2022-12-29T00:49:33.116Z,70.99
2022-12-29T00:52:12.272Z,70.23
2022-12-29T00:54:42.196Z,70.29
2022-12-29T00:57:11.560Z,70.18
2022-12-29T00:59:41.777Z,70.03
2022-12-29T01:02:11.470Z,70.49
2022-12-29T01:04:39.909Z,70.75
2022-12-29T01:07:08.073Z,70.66
2022-12-29T01:09:55.121Z,70.27
2022-12-29T01:12:41.738Z,69.92
2022-12-29T01:15:15.868Z,70.03
2022-12-29T01:17:44.390Z,70.01
2022-12-29T01:20:13.072Z,70.11
2022-12-29T01:22:43.650Z,70.34
2022-12-29T01:25:12.162Z,70.26
2022-12-29T01:27:40.360Z,70.04
2022-12-29T01:30:09.013Z,69.88
2022-12-29T01:32:37.637Z,70.18
2022-12-29T01:35:06.032Z,69.53
2022-12-29T01:37:36.415Z,69.65
2022-12-29T01:40:05.863Z,69.44
2022-12-29T01:42:34.448Z,69.44
2022-12-29T01:45:14.144Z,69.41
2022-12-29T01:47:59.070Z,69.32
2022-12-29T01:50:34.613Z,69.59
2022-12-29T01:53:14.752Z,69.78
2022-12-29T01:55:51.483Z,70.60
2022-12-29T01:58:23.920Z,70.70
2022-12-29T02:00:52.585Z,70.38
2022-12-29T02:03:24.050Z,70.47
2022-12-29T02:06:29.425Z,70.68
2022-12-29T02:08:59.533Z,70.77
2022-12-29T02:11:30.063Z,71.01
2022-12-29T02:14:01.964Z,70.80
2022-12-29T02:17:04.143Z,70.84
2022-12-29T02:19:41.580Z,70.98
2022-12-29T02:22:31.170Z,71.34
2022-12-29T02:25:35.516Z,71.48
2022-12-29T02:28:13.649Z,71.61
2022-12-29T02:31:04.407Z,71.63
2022-12-29T02:33:43.699Z,72.25
2022-12-29T02:36:23.660Z,72.61
2022-12-29T02:39:05.688Z,72.85
2022-12-29T02:42:17.546Z,73.14
2022-12-29T02:44:55.371Z,73.28
2022-12-29T02:47:49.817Z,73.96
2022-12-29T02:50:31.404Z,74.94
2022-12-29T02:53:03.613Z,74.76
2022-12-29T02:55:32.210Z,75.67
2022-12-29T02:58:09.619Z,76.78
2022-12-29T03:00:57.697Z,76.62
2022-12-29T03:03:51.333Z,76.78
2022-12-29T03:06:53.326Z,77.07
2022-12-29T03:09:28.511Z,77.25
2022-12-29T03:12:11.492Z,77.71
2022-12-29T03:15:09.517Z,76.97
2022-12-29T03:18:03.604Z,77.87
2022-12-29T03:20:54.364Z,78.12
2022-12-29T03:23:26.374Z,77.33
2022-12-29T03:26:00.775Z,77.64
2022-12-29T03:28:38.997Z,77.07
2022-12-29T03:31:10.549Z,77.33
2022-12-29T03:33:43.710Z,79.12
2022-12-29T03:36:22.691Z,79.47
2022-12-29T03:39:04.052Z,79.32
2022-12-29T03:41:34.684Z,79.33
2022-12-29T03:44:07.867Z,79.29
2022-12-29T03:46:36.710Z,79.83
2022-12-29T03:49:05.484Z,79.28
2022-12-29T03:51:33.735Z,78.81
2022-12-29T03:54:03.836Z,78.57
2022-12-29T03:56:32.027Z,78.42
2022-12-29T03:59:00.246Z,78.92
2022-12-29T04:01:39.986Z,79.04
2022-12-29T04:04:09.487Z,79.22
2022-12-29T04:06:37.716Z,78.30
2022-12-29T04:09:10.551Z,79.07
2022-12-29T04:11:42.867Z,79.31
2022-12-29T04:14:11.306Z,79.46
2022-12-29T04:16:40.120Z,79.38
2022-12-29T04:19:09.069Z,79.27
2022-12-29T04:21:39.029Z,79.26
2022-12-29T04:24:07.809Z,79.05
2022-12-29T04:26:40.919Z,78.85
2022-12-29T04:29:28.240Z,78.64
2022-12-29T04:32:22.211Z,78.26
2022-12-29T04:34:51.907Z,78.16
2022-12-29T04:37:20.997Z,78.04
2022-12-29T04:39:49.990Z,78.11
2022-12-29T04:42:18.621Z,77.89
2022-12-29T04:44:47.324Z,77.81
2022-12-29T04:47:54.442Z,77.61
2022-12-29T04:50:42.244Z,77.65
2022-12-29T04:53:20.980Z,77.63
2022-12-29T04:55:53.646Z,76.85
2022-12-29T04:58:23.508Z,77.11
2022-12-29T05:00:53.415Z,76.50
2022-12-29T05:03:24.844Z,76.72
2022-12-29T05:05:58.326Z,76.76
2022-12-29T05:08:28.501Z,76.35
2022-12-29T05:10:59.327Z,76.64
2022-12-29T05:13:28.267Z,76.26
2022-12-29T05:15:56.426Z,76.43
2022-12-29T05:18:25.807Z,76.41
2022-12-29T05:20:54.437Z,76.29
2022-12-29T05:23:24.504Z,75.40
2022-12-29T05:26:03.750Z,75.53
2022-12-29T05:28:38.793Z,75.96
2022-12-29T05:31:16.296Z,75.50
2022-12-29T05:33:45.585Z,75.66
2022-12-29T05:36:14.873Z,75.80
2022-12-29T05:38:50.141Z,75.22
2022-12-29T05:41:19.642Z,74.79
2022-12-29T05:43:48.070Z,74.72
2022-12-29T05:46:33.022Z,74.94
2022-12-29T05:49:27.735Z,74.68
2022-12-29T05:52:15.377Z,73.73
2022-12-29T05:54:45.921Z,73.32
2022-12-29T05:57:16.622Z,73.77
2022-12-29T05:59:48.948Z,73.61
2022-12-29T06:02:17.529Z,73.35
2022-12-29T06:04:45.976Z,72.76
2022-12-29T06:07:16.073Z,72.75
2022-12-29T06:09:47.643Z,72.54
2022-12-29T06:12:18.370Z,72.31
2022-12-29T06:14:48.610Z,72.17
2022-12-29T06:17:17.901Z,72.24
2022-12-29T06:19:46.265Z,72.65
2022-12-29T06:22:15.378Z,72.31
2022-12-29T06:24:44.263Z,72.08
2022-12-29T06:27:15.299Z,72.77
2022-12-29T06:29:44.131Z,72.04
2022-12-29T06:32:15.871Z,72.21
2022-12-29T06:34:49.423Z,72.64
2022-12-29T06:37:17.481Z,72.81
2022-12-29T06:39:45.745Z,72.00
2022-12-29T06:42:17.037Z,71.94
2022-12-29T06:45:06.322Z,71.34
2022-12-29T06:47:38.731Z,71.35
2022-12-29T06:50:07.287Z,71.60
2022-12-29T06:52:35.483Z,71.70
2022-12-29T06:55:04.279Z,70.59
2022-12-29T06:57:33.429Z,70.33
2022-12-29T07:00:01.824Z,70.52
2022-12-29T07:02:30.402Z,70.00
2022-12-29T07:05:00.780Z,70.46
2022-12-29T07:07:29.015Z,70.69
2022-12-29T07:09:57.334Z,69.94
2022-12-29T07:12:27.844Z,70.42
2022-12-29T07:14:57.177Z,69.64
2022-12-29T07:17:25.548Z,69.08
2022-12-29T07:19:53.629Z,69.12
2022-12-29T07:22:21.763Z,68.89
2022-12-29T07:24:50.210Z,69.67
2022-12-29T07:27:18.320Z,69.78
2022-12-29T07:29:46.560Z,69.43
2022-12-29T07:32:15.364Z,70.15
2022-12-29T07:34:46.165Z,69.35
2022-12-29T07:37:16.716Z,69.01
2022-12-29T07:39:45.709Z,69.35
2022-12-29T07:42:13.786Z,70.00
2022-12-29T07:44:45.264Z,69.41
2022-12-29T07:47:39.780Z,68.55
2022-12-29T07:50:08.111Z,68.58
2022-12-29T07:52:36.206Z,67.94
2022-12-29T07:55:04.938Z,68.11
2022-12-29T07:57:33.301Z,67.77
2022-12-29T08:00:01.629Z,67.27
2022-12-29T08:02:40.345Z,66.96
2022-12-29T08:05:08.890Z,66.95
2022-12-29T08:07:37.587Z,66.64
2022-12-29T08:10:06.655Z,68.27
2022-12-29T08:12:35.104Z,67.22
2022-12-29T08:15:03.479Z,66.82
2022-12-29T08:17:31.830Z,67.32
2022-12-29T08:20:00.615Z,66.61
2022-12-29T08:22:28.848Z,67.59
2022-12-29T08:24:57.038Z,67.61
2022-12-29T08:27:25.149Z,66.97
2022-12-29T08:29:53.463Z,67.34
2022-12-29T08:32:21.668Z,66.64
2022-12-29T08:34:49.775Z,66.90
2022-12-29T08:37:18.007Z,66.64
2022-12-29T08:39:46.159Z,66.44
2022-12-29T08:42:14.297Z,66.60
2022-12-29T08:44:42.632Z,66.78
2022-12-29T08:47:12.462Z,66.81
2022-12-29T08:49:40.799Z,66.60
2022-12-29T08:52:09.385Z,66.54
2022-12-29T08:54:37.697Z,65.79
2022-12-29T08:57:06.022Z,65.41
2022-12-29T08:59:42.656Z,65.59
2022-12-29T09:02:14.694Z,66.49
2022-12-29T09:04:46.380Z,65.49
2022-12-29T09:07:14.607Z,65.53
2022-12-29T09:09:43.188Z,65.56
2022-12-29T09:12:11.771Z,65.78
2022-12-29T09:14:39.972Z,65.82
2022-12-29T09:17:26.798Z,65.16
2022-12-29T09:19:55.192Z,66.26
2022-12-29T09:22:23.455Z,65.64
2022-12-29T09:24:52.073Z,65.98
2022-12-29T09:27:20.793Z,65.70
2022-12-29T09:29:49.163Z,65.51
2022-12-29T09:32:18.694Z,64.97
2022-12-29T09:34:48.931Z,64.94
2022-12-29T09:37:17.115Z,64.68
2022-12-29T09:39:50.513Z,64.73
2022-12-29T09:43:01.458Z,64.48
2022-12-29T09:45:48.281Z,64.21
2022-12-29T09:48:31.612Z,64.23
2022-12-29T09:51:05.341Z,64.02
2022-12-29T09:53:51.445Z,64.71
2022-12-29T09:56:23.059Z,64.22
2022-12-29T09:58:59.434Z,63.67
2022-12-29T10:01:41.140Z,63.42
2022-12-29T10:04:10.319Z,63.43
2022-12-29T10:07:27.929Z,63.37
2022-12-29T10:10:04.978Z,63.64
2022-12-29T10:13:15.183Z,64.47
2022-12-29T10:16:04.010Z,64.69
2022-12-29T10:18:53.695Z,64.72
2022-12-29T10:21:41.765Z,64.69
2022-12-29T10:24:13.653Z,64.14
2022-12-29T10:26:44.520Z,64.15
2022-12-29T10:29:21.768Z,63.92
2022-12-29T10:32:15.021Z,63.58
2022-12-29T10:34:50.777Z,64.02
2022-12-29T10:37:19.063Z,64.07
2022-12-29T10:39:52.193Z,63.91
2022-12-29T10:42:38.467Z,64.23
2022-12-29T10:45:07.631Z,63.78
2022-12-29T10:47:44.401Z,63.65
2022-12-29T10:50:14.093Z,63.47
2022-12-29T10:52:42.598Z,63.60
2022-12-29T10:55:16.644Z,63.45
2022-12-29T10:57:46.574Z,63.01
2022-12-29T11:00:17.682Z,63.11
2022-12-29T11:03:05.089Z,62.98
2022-12-29T11:05:58.263Z,63.76
2022-12-29T11:08:32.657Z,63.61
2022-12-29T11:11:11.482Z,64.02
2022-12-29T11:13:58.477Z,63.04
2022-12-29T11:16:33.125Z,63.46
2022-12-29T11:19:02.782Z,63.11
2022-12-29T11:21:41.523Z,63.05
2022-12-29T11:24:21.704Z,62.72
2022-12-29T11:26:54.063Z,63.33
2022-12-29T11:29:26.030Z,63.11
2022-12-29T11:32:00.295Z,63.22
2022-12-29T11:34:37.646Z,64.10
2022-12-29T11:37:12.214Z,63.30
2022-12-29T11:40:21.212Z,64.10
2022-12-29T11:42:56.549Z,63.85
2022-12-29T11:45:33.575Z,63.54
2022-12-29T11:48:10.155Z,63.64
2022-12-29T11:50:42.261Z,63.36
2022-12-29T11:53:39.849Z,63.34
2022-12-29T11:56:15.966Z,63.08
2022-12-29T11:58:44.615Z,63.48
2022-12-29T12:01:46.686Z,63.46
2022-12-29T12:04:18.732Z,63.12
2022-12-29T12:07:25.422Z,62.96
2022-12-29T12:10:06.561Z,63.00
2022-12-29T12:12:48.883Z,63.25
2022-12-29T12:15:32.808Z,63.11
2022-12-29T12:18:22.749Z,62.97
2022-12-29T12:21:21.386Z,63.40
2022-12-29T12:24:01.605Z,63.04
2022-12-29T12:26:40.228Z,62.66
2022-12-29T12:29:15.779Z,62.77
2022-12-29T12:31:56.933Z,63.02
2022-12-29T12:34:32.377Z,63.13
2022-12-29T12:37:41.098Z,62.54
2022-12-29T12:40:51.587Z,62.45
2022-12-29T12:43:31.807Z,63.39
2022-12-29T12:46:36.271Z,63.16
2022-12-29T12:49:32.229Z,62.88
2022-12-29T12:52:06.012Z,62.29
2022-12-29T12:55:05.647Z,62.55
2022-12-29T12:58:12.404Z,62.33
2022-12-29T13:00:49.687Z,62.78
2022-12-29T13:03:29.653Z,62.94
2022-12-29T13:06:13.187Z,62.89
2022-12-29T13:09:16.123Z,62.99
2022-12-29T13:12:05.711Z,63.68
2022-12-29T13:14:47.141Z,63.60
2022-12-29T13:17:49.208Z,63.71
2022-12-29T13:20:38.002Z,62.95
2022-12-29T13:23:26.580Z,63.00
2022-12-29T13:26:08.622Z,62.10
2022-12-29T13:29:18.678Z,62.85
2022-12-29T13:32:05.918Z,63.06
2022-12-29T13:34:49.607Z,62.40
2022-12-29T13:37:21.689Z,62.29
2022-12-29T13:39:55.688Z,62.95
2022-12-29T13:42:25.686Z,62.71
2022-12-29T13:45:06.399Z,62.53
2022-12-29T13:47:42.751Z,62.69
2022-12-29T13:50:18.127Z,62.46
2022-12-29T13:52:57.207Z,62.60
2022-12-29T13:55:42.768Z,62.70
2022-12-29T13:58:25.622Z,63.10
2022-12-29T14:01:15.240Z,62.95
2022-12-29T14:03:56.725Z,63.18
2022-12-29T14:06:26.999Z,62.92
2022-12-29T14:09:01.483Z,63.07
2022-12-29T14:11:42.288Z,63.28
2022-12-29T14:14:22.461Z,63.22
2022-12-29T14:16:51.489Z,63.74
2022-12-29T14:19:28.543Z,63.45
2022-12-29T14:22:03.379Z,63.37
2022-12-29T14:24:37.644Z,63.41
2022-12-29T14:27:28.885Z,63.58
2022-12-29T14:29:57.227Z,63.91
2022-12-29T14:32:25.364Z,63.35
2022-12-29T14:34:58.733Z,63.70
2022-12-29T14:37:33.227Z,63.53
2022-12-29T14:40:24.064Z,63.46
2022-12-29T14:42:57.602Z,63.24
2022-12-29T14:45:30.224Z,63.62
2022-12-29T14:47:58.664Z,64.05
2022-12-29T14:50:44.251Z,64.52
2022-12-29T14:53:48.977Z,63.88
2022-12-29T14:56:19.983Z,63.78
2022-12-29T14:59:02.115Z,63.46
2022-12-29T15:01:52.355Z,64.14
2022-12-29T15:04:42.747Z,63.90
2022-12-29T15:07:12.270Z,63.73
2022-12-29T15:09:50.405Z,63.62
2022-12-29T15:12:18.561Z,63.61
2022-12-29T15:14:58.783Z,63.43
2022-12-29T15:17:30.379Z,63.66
2022-12-29T15:20:01.986Z,63.60
2022-12-29T15:22:31.742Z,63.89
2022-12-29T15:25:00.149Z,63.62
2022-12-29T15:27:28.512Z,63.71
2022-12-29T15:30:03.003Z,63.31
2022-12-29T15:32:43.471Z,63.36
2022-12-29T15:35:38.745Z,63.57
2022-12-29T15:38:40.389Z,64.48
2022-12-29T15:41:18.284Z,64.31
2022-12-29T15:44:25.334Z,64.63
2022-12-29T15:46:53.594Z,64.59
2022-12-29T15:49:25.061Z,64.28
2022-12-29T15:51:57.206Z,64.18
2022-12-29T15:54:33.033Z,64.17
2022-12-29T15:57:01.630Z,64.38
2022-12-29T15:59:33.682Z,64.61
2022-12-29T16:02:10.198Z,64.77
2022-12-29T16:05:15.628Z,64.74
2022-12-29T16:07:41.337Z,64.95
2022-12-29T16:10:41.291Z,65.20
2022-12-29T16:13:39.638Z,65.50
2022-12-29T16:16:38.907Z,65.66
2022-12-29T16:19:35.122Z,65.78
2022-12-29T16:22:11.170Z,65.93
2022-12-29T16:24:42.137Z,66.01
2022-12-29T16:27:38.299Z,66.11
2022-12-29T16:30:34.216Z,66.13
2022-12-29T16:33:06.131Z,65.91
2022-12-29T16:35:44.207Z,65.85
2022-12-29T16:38:22.682Z,66.31
2022-12-29T16:40:59.113Z,65.96
2022-12-29T16:43:36.202Z,65.92
2022-12-29T16:46:30.034Z,66.04
2022-12-29T16:48:59.132Z,66.30
2022-12-29T16:51:37.474Z,66.01
2022-12-29T16:54:06.170Z,65.97
2022-12-29T16:56:37.657Z,66.05
2022-12-29T16:59:18.776Z,65.86
2022-12-29T17:01:47.848Z,65.94
2022-12-29T17:04:16.310Z,66.10
2022-12-29T17:06:44.448Z,66.11
2022-12-29T17:09:20.495Z,66.11
2022-12-29T17:12:02.907Z,66.08
2022-12-29T17:14:44.974Z,66.09
2022-12-29T17:17:33.864Z,65.97
2022-12-29T17:20:06.242Z,66.12
2022-12-29T17:22:34.574Z,66.11
2022-12-29T17:25:03.929Z,65.81
2022-12-29T17:27:41.566Z,65.74
2022-12-29T17:30:13.224Z,65.77
2022-12-29T17:32:44.704Z,66.05
2022-12-29T17:35:21.820Z,65.83
2022-12-29T17:37:50.783Z,65.82
2022-12-29T17:40:25.536Z,66.05
2022-12-29T17:42:56.934Z,65.94
2022-12-29T17:45:30.467Z,65.90
2022-12-29T17:48:02.691Z,65.85
2022-12-29T17:50:38.565Z,65.84
2022-12-29T17:53:12.809Z,65.97
2022-12-29T17:55:42.246Z,66.09
2022-12-29T17:58:19.836Z,66.17
2022-12-29T18:00:50.975Z,65.87
2022-12-29T18:03:25.269Z,65.84
2022-12-29T18:05:54.625Z,66.02
2022-12-29T18:08:23.056Z,65.97
2022-12-29T18:10:55.527Z,66.32
2022-12-29T18:13:27.198Z,66.36
2022-12-29T18:15:58.208Z,66.25
2022-12-29T18:18:28.003Z,66.03
2022-12-29T18:20:59.819Z,66.14
2022-12-29T18:23:35.266Z,66.10
2022-12-29T18:26:09.960Z,66.19
2022-12-29T18:28:38.472Z,66.15
2022-12-29T18:31:17.801Z,66.27
2022-12-29T18:33:46.713Z,66.14
2022-12-29T18:36:18.372Z,66.22
2022-12-29T18:38:48.406Z,66.16
2022-12-29T18:41:19.783Z,66.41
2022-12-29T18:43:48.768Z,66.46
2022-12-29T18:46:22.322Z,66.42
2022-12-29T18:48:52.875Z,66.39
2022-12-29T18:51:24.720Z,66.48
2022-12-29T18:53:54.900Z,66.48
2022-12-29T18:56:24.354Z,66.60
2022-12-29T18:58:58.903Z,66.45
2022-12-29T19:01:28.536Z,66.53
2022-12-29T19:03:56.981Z,66.68
2022-12-29T19:06:25.473Z,66.77
2022-12-29T19:08:53.741Z,66.76
2022-12-29T19:11:33.332Z,66.79
2022-12-29T19:14:01.812Z,66.87
2022-12-29T19:16:30.018Z,67.03
2022-12-29T19:19:09.395Z,66.98
2022-12-29T19:21:38.834Z,66.97
2022-12-29T19:24:07.323Z,67.11
2022-12-29T19:26:40.806Z,67.26
2022-12-29T19:29:15.869Z,67.27
2022-12-29T19:31:44.942Z,67.35
2022-12-29T19:34:17.297Z,67.41
2022-12-29T19:36:46.462Z,67.35
2022-12-29T19:39:15.076Z,67.44
2022-12-29T19:41:43.529Z,67.39
2022-12-29T19:44:11.817Z,67.53
2022-12-29T19:46:40.114Z,67.51
2022-12-29T19:49:08.950Z,67.30
2022-12-29T19:51:37.273Z,67.30
2022-12-29T19:54:05.702Z,67.21
2022-12-29T19:56:33.706Z,67.10
2022-12-29T19:59:02.259Z,66.84
2022-12-29T20:01:31.138Z,66.73
2022-12-29T20:04:00.686Z,66.62
2022-12-29T20:06:28.812Z,66.56
2022-12-29T20:08:57.096Z,66.78
2022-12-29T20:11:25.376Z,66.70
2022-12-29T20:13:53.670Z,66.56
2022-12-29T20:16:22.262Z,66.55
2022-12-29T20:18:51.039Z,66.64
2022-12-29T20:21:25.104Z,66.95
2022-12-29T20:23:54.703Z,66.50
2022-12-29T20:26:26.250Z,66.36
2022-12-29T20:28:57.229Z,66.63
2022-12-29T20:31:36.257Z,66.35
2022-12-29T20:34:06.475Z,66.22
2022-12-29T20:36:36.957Z,66.14
2022-12-29T20:39:09.055Z,66.15
2022-12-29T20:41:37.606Z,66.46
2022-12-29T20:44:05.981Z,66.47
2022-12-29T20:46:41.249Z,66.58
2022-12-29T20:49:12.434Z,66.38
2022-12-29T20:54:38.503Z,66.70
2022-12-29T20:57:08.316Z,66.63
2022-12-29T20:59:38.096Z,66.73
2022-12-29T21:02:07.060Z,66.72
2022-12-29T21:05:05.358Z,66.86
2022-12-29T21:07:23.888Z,66.82
2022-12-29T21:09:52.291Z,66.84
2022-12-29T21:12:20.529Z,66.89
2022-12-29T21:14:49.004Z,66.87
2022-12-29T21:17:20.708Z,66.89
2022-12-29T21:19:48.944Z,66.83
2022-12-29T21:22:17.708Z,66.67
2022-12-29T21:24:46.956Z,66.61
2022-12-29T21:27:15.206Z,66.59
2022-12-29T21:29:43.597Z,66.87
2022-12-29T21:32:12.105Z,66.58
2022-12-29T21:34:40.268Z,66.40
2022-12-29T21:37:08.558Z,66.52
2022-12-29T21:39:37.437Z,66.63
2022-12-29T21:42:06.148Z,66.26
2022-12-29T21:44:52.947Z,66.07
2022-12-29T21:47:21.232Z,66.06
2022-12-29T21:49:49.587Z,66.21
2022-12-29T21:52:17.858Z,66.17
2022-12-29T21:55:01.352Z,66.19
2022-12-29T21:57:52.585Z,66.23
2022-12-29T22:00:40.996Z,66.35
2022-12-29T22:03:29.426Z,66.17
2022-12-29T22:06:17.323Z,65.98
2022-12-29T22:09:04.176Z,65.91
2022-12-29T22:11:51.791Z,65.80
2022-12-29T22:14:20.115Z,66.03
2022-12-29T22:16:48.490Z,65.97
2022-12-29T22:19:16.746Z,66.16
2022-12-29T22:21:44.945Z,66.13
2022-12-29T22:24:13.614Z,66.08
2022-12-29T22:26:41.930Z,66.28
2022-12-29T22:29:10.272Z,66.19
2022-12-29T22:31:39.063Z,66.12
2022-12-29T22:34:07.398Z,66.06
2022-12-29T22:36:35.685Z,66.17
2022-12-29T22:39:04.095Z,66.13
2022-12-29T22:41:32.427Z,66.03
2022-12-29T22:44:00.866Z,66.14
2022-12-29T22:46:29.313Z,66.18
2022-12-29T22:48:58.239Z,66.39
2022-12-29T22:51:26.782Z,66.33
2022-12-29T22:53:55.185Z,66.31
2022-12-29T22:56:23.424Z,66.44
2022-12-29T22:58:51.967Z,66.43
2022-12-29T23:01:22.926Z,66.30
2022-12-29T23:03:51.691Z,66.25
2022-12-29T23:06:20.729Z,66.39
2022-12-29T23:08:49.154Z,66.47
2022-12-29T23:11:17.440Z,66.52
2022-12-29T23:13:46.280Z,66.25
2022-12-29T23:16:15.848Z,66.16
2022-12-29T23:18:53.659Z,66.25
2022-12-29T23:21:22.105Z,66.40
2022-12-29T23:23:53.602Z,66.26
2022-12-29T23:26:32.708Z,66.46
2022-12-29T23:29:03.831Z,66.39
2022-12-29T23:31:33.042Z,66.68
2022-12-29T23:34:03.347Z,66.48
2022-12-29T23:36:32.036Z,66.31
2022-12-29T23:39:00.453Z,66.45
2022-12-29T23:41:28.974Z,66.40
2022-12-29T23:43:57.511Z,66.37
2022-12-29T23:46:28.240Z,66.42
2022-12-29T23:48:57.026Z,66.47
2022-12-29T23:51:25.525Z,66.69
2022-12-29T23:53:53.805Z,66.54
2022-12-29T23:56:23.704Z,66.52
2022-12-29T23:58:52.183Z,66.63
